createdAt,value
2018-11-11T00:01:17.497Z,26
2018-11-11T00:06:19.964Z,27
2018-11-11T00:11:22.428Z,25
2018-11-11T00:16:24.874Z,26
2018-11-11T00:21:27.363Z,26
2018-11-11T00:26:29.712Z,26
2018-11-11T00:31:32.210Z,26
2018-11-11T00:36:34.612Z,27
2018-11-11T00:41:37.048Z,28
2018-11-11T00:46:39.521Z,27
2018-11-11T00:51:41.950Z,28
2018-11-11T00:56:44.408Z,28
2018-11-11T01:01:46.835Z,27
2018-11-11T01:06:49.404Z,27
2018-11-11T01:11:51.715Z,25
2018-11-11T01:16:54.201Z,27
2018-11-11T01:21:56.618Z,25
2018-11-11T01:26:59.052Z,26
2018-11-11T01:32:01.499Z,25
2018-11-11T01:37:03.943Z,26
2018-11-11T01:42:06.397Z,26
2018-11-11T01:47:08.838Z,27
2018-11-11T01:52:11.276Z,26
2018-11-11T01:57:13.713Z,25
2018-11-11T02:02:16.257Z,25
2018-11-11T02:07:18.632Z,29
2018-11-11T02:12:21.050Z,29
2018-11-11T02:17:23.514Z,30
2018-11-11T02:22:25.948Z,30
2018-11-11T02:27:28.435Z,30
2018-11-11T02:32:30.888Z,30
2018-11-11T02:37:33.379Z,29
2018-11-11T02:42:35.754Z,30
2018-11-11T02:47:38.181Z,30
2018-11-11T02:52:40.633Z,29
2018-11-11T02:57:43.089Z,31
2018-11-11T03:02:45.520Z,29
2018-11-11T03:07:47.965Z,30
2018-11-11T03:12:50.406Z,30
2018-11-11T03:17:52.868Z,29
2018-11-11T03:22:55.300Z,29
2018-11-11T03:27:57.798Z,27
2018-11-11T03:33:00.195Z,29
2018-11-11T03:38:02.670Z,29
2018-11-11T03:43:05.103Z,29
2018-11-11T03:48:07.554Z,28
2018-11-11T03:53:10.024Z,26
2018-11-11T03:58:12.439Z,27
2018-11-11T04:03:14.926Z,26
2018-11-11T04:08:17.343Z,27
2018-11-11T04:13:19.772Z,26
2018-11-11T04:18:22.222Z,24
2018-11-11T04:23:24.665Z,26
2018-11-11T04:28:27.157Z,24
2018-11-11T04:33:29.641Z,24
2018-11-11T04:38:31.999Z,24
2018-11-11T04:43:34.428Z,24
2018-11-11T04:48:36.891Z,23
2018-11-11T04:53:39.394Z,25
2018-11-11T04:58:41.751Z,23
2018-11-11T05:08:46.646Z,22
2018-11-11T05:13:49.115Z,21
2018-11-11T05:18:51.533Z,21
2018-11-11T05:23:54.002Z,21
2018-11-11T05:28:56.427Z,20
2018-11-11T05:33:58.891Z,21
2018-11-11T05:39:01.321Z,20
2018-11-11T05:44:03.759Z,20
2018-11-11T05:49:06.201Z,20
2018-11-11T05:54:08.676Z,21
2018-11-11T05:59:11.069Z,19
2018-11-11T06:04:13.512Z,20
2018-11-11T06:09:15.959Z,19
2018-11-11T06:14:18.422Z,20
2018-11-11T06:19:20.868Z,18
2018-11-11T06:24:23.303Z,19
2018-11-11T06:29:25.757Z,18
2018-11-11T06:34:28.199Z,18
2018-11-11T06:39:30.627Z,18
2018-11-11T06:44:33.059Z,17
2018-11-11T06:49:35.488Z,17
2018-11-11T06:54:37.918Z,16
2018-11-11T06:59:40.360Z,14
2018-11-11T07:04:42.816Z,15
2018-11-11T07:09:45.256Z,14
2018-11-11T07:14:47.691Z,14
2018-11-11T07:19:50.145Z,15
2018-11-11T07:24:52.573Z,14
2018-11-11T07:29:55.022Z,16
2018-11-11T07:34:57.454Z,15
2018-11-11T07:39:59.904Z,16
2018-11-11T07:45:02.372Z,16
2018-11-11T07:50:04.773Z,16
2018-11-11T07:55:07.359Z,15
2018-11-11T08:00:09.658Z,16
2018-11-11T08:05:12.126Z,16
2018-11-11T08:10:14.534Z,15
2018-11-11T08:15:16.984Z,14
2018-11-11T08:20:19.421Z,15
2018-11-11T08:25:21.923Z,14
2018-11-11T08:30:24.300Z,16
2018-11-11T08:35:26.747Z,15
2018-11-11T08:40:29.201Z,14
2018-11-11T08:45:31.760Z,14
2018-11-11T08:50:34.065Z,12
2018-11-11T08:55:36.517Z,12
2018-11-11T09:00:38.942Z,13
2018-11-11T09:05:41.396Z,12
2018-11-11T09:10:43.846Z,12
2018-11-11T09:15:46.268Z,12
2018-11-11T09:20:48.730Z,11
2018-11-11T09:25:51.147Z,12
2018-11-11T09:30:53.587Z,11
2018-11-11T09:35:56.032Z,10
2018-11-11T09:40:58.513Z,9
2018-11-11T09:46:00.932Z,10
2018-11-11T09:51:03.438Z,9
2018-11-11T09:56:05.823Z,10
2018-11-11T10:01:08.370Z,9
2018-11-11T10:06:10.706Z,10
2018-11-11T10:11:13.162Z,9
2018-11-11T10:16:15.589Z,9
2018-11-11T10:21:18.096Z,10
2018-11-11T10:26:20.471Z,9
2018-11-11T10:31:22.907Z,9
2018-11-11T10:36:25.344Z,9
2018-11-11T10:41:27.797Z,9
2018-11-11T10:46:30.228Z,9
2018-11-11T10:56:35.166Z,8
2018-11-11T11:01:37.571Z,7
2018-11-11T11:06:40.018Z,9
2018-11-11T11:11:42.428Z,6
2018-11-11T11:16:44.870Z,5
2018-11-11T11:21:47.296Z,5
2018-11-11T11:26:49.753Z,4
2018-11-11T11:31:52.233Z,4
2018-11-11T11:36:54.629Z,4
2018-11-11T11:41:57.100Z,2
2018-11-11T11:46:59.569Z,3
2018-11-11T11:52:02.109Z,4
2018-11-11T11:57:04.397Z,4
2018-11-11T12:02:06.927Z,4
2018-11-11T12:07:09.303Z,4
2018-11-11T12:12:11.710Z,4
2018-11-11T12:17:14.205Z,4
2018-11-11T12:22:16.663Z,4
2018-11-11T12:27:19.038Z,4
2018-11-11T12:32:21.476Z,4
2018-11-11T12:37:23.919Z,2
2018-11-11T12:42:26.356Z,1
2018-11-11T12:47:28.800Z,3
2018-11-11T12:52:31.235Z,4
2018-11-11T12:57:33.697Z,4
2018-11-11T13:02:36.124Z,3
2018-11-11T13:07:38.561Z,3
2018-11-11T13:12:41.018Z,3
2018-11-11T13:17:43.456Z,3
2018-11-11T13:22:46.097Z,3
2018-11-11T13:27:48.343Z,3
2018-11-11T13:32:50.801Z,3
2018-11-11T13:37:53.249Z,3
2018-11-11T13:42:55.665Z,3
2018-11-11T13:47:58.123Z,3
2018-11-11T13:53:00.551Z,3
2018-11-11T13:58:03.013Z,3
2018-11-11T14:03:05.449Z,3
2018-11-11T14:08:07.869Z,3
2018-11-11T14:13:10.404Z,3
2018-11-11T14:18:12.897Z,3
2018-11-11T14:23:15.175Z,3
2018-11-11T14:28:17.623Z,3
2018-11-11T14:33:20.066Z,4
2018-11-11T14:38:22.573Z,4
2018-11-11T14:43:24.954Z,4
2018-11-11T14:48:27.386Z,4
2018-11-11T14:53:29.963Z,3
2018-11-11T14:58:32.426Z,3
2018-11-11T15:03:34.713Z,3
2018-11-11T15:08:37.155Z,3
2018-11-11T15:13:39.607Z,3
2018-11-11T15:18:42.028Z,2
2018-11-11T15:23:44.484Z,2
2018-11-11T15:28:46.913Z,2
2018-11-11T15:33:49.352Z,2
2018-11-11T15:38:51.868Z,2
2018-11-11T15:43:54.287Z,2
2018-11-11T15:48:56.687Z,2
2018-11-11T15:53:59.178Z,2
2018-11-11T15:59:01.688Z,2
2018-11-11T16:04:03.990Z,2
2018-11-11T16:09:06.465Z,2
2018-11-11T16:14:08.952Z,2
2018-11-11T16:19:11.314Z,2
2018-11-11T16:24:13.761Z,3
2018-11-11T16:29:16.192Z,2
2018-11-11T16:34:18.653Z,2
2018-11-11T16:39:21.247Z,3
2018-11-11T16:44:23.685Z,2
2018-11-11T16:49:25.960Z,3
2018-11-11T16:54:28.418Z,3
2018-11-11T16:59:30.844Z,2
2018-11-11T17:04:33.283Z,3
2018-11-11T17:09:35.727Z,2
2018-11-11T17:14:38.178Z,2
2018-11-11T17:19:40.600Z,2
2018-11-11T17:24:43.051Z,2
2018-11-11T17:29:45.554Z,2
2018-11-11T17:34:47.935Z,2
2018-11-11T17:39:50.349Z,2
2018-11-11T17:44:52.808Z,3
2018-11-11T17:49:55.232Z,3
2018-11-11T17:54:57.705Z,3
2018-11-11T18:00:00.121Z,3
2018-11-11T18:05:02.990Z,4
2018-11-11T18:10:05.024Z,6
2018-11-11T18:15:07.549Z,7
2018-11-11T18:20:09.924Z,9
2018-11-11T18:25:12.395Z,9
2018-11-11T18:30:14.785Z,10
2018-11-11T18:35:17.236Z,11
2018-11-11T18:40:19.657Z,12
2018-11-11T18:45:22.183Z,13
2018-11-11T18:50:24.515Z,13
2018-11-11T18:55:27.015Z,15
2018-11-11T19:00:29.417Z,17
2018-11-11T19:05:31.846Z,14
2018-11-11T19:10:34.457Z,13
2018-11-11T19:15:36.722Z,14
2018-11-11T19:20:39.213Z,13
2018-11-11T19:25:41.623Z,14
2018-11-11T19:30:44.153Z,14
2018-11-11T19:35:46.500Z,15
2018-11-11T19:40:48.965Z,15
2018-11-11T19:45:51.478Z,15
2018-11-11T19:50:53.827Z,14
2018-11-11T19:55:56.248Z,17
2018-11-11T20:00:58.737Z,17
2018-11-11T20:06:01.304Z,16
2018-11-11T20:11:03.602Z,16
2018-11-11T20:16:06.097Z,14
2018-11-11T20:21:08.569Z,15
2018-11-11T20:26:10.913Z,12
2018-11-11T20:31:13.384Z,11
2018-11-11T20:36:15.809Z,10
2018-11-11T20:41:18.316Z,10
2018-11-11T20:46:20.699Z,8
2018-11-11T20:51:23.107Z,8
2018-11-11T20:56:25.679Z,8
2018-11-11T21:01:28.008Z,8
2018-11-11T21:06:30.427Z,7
2018-11-11T21:11:32.939Z,7
2018-11-11T21:16:35.322Z,7
2018-11-11T21:21:37.747Z,8
2018-11-11T21:26:40.190Z,8
2018-11-11T21:31:42.631Z,8
2018-11-11T21:36:45.071Z,9
2018-11-11T21:41:47.521Z,9
2018-11-11T21:46:49.957Z,8
2018-11-11T21:51:52.420Z,7
2018-11-11T21:56:54.824Z,7
2018-11-11T22:01:57.301Z,7
2018-11-11T22:06:59.870Z,8
2018-11-11T22:12:02.165Z,7
2018-11-11T22:17:04.618Z,8
2018-11-11T22:22:07.078Z,8
2018-11-11T22:27:09.479Z,9
2018-11-11T22:32:11.923Z,9
2018-11-11T22:37:14.351Z,10
2018-11-11T22:42:16.907Z,9
2018-11-11T22:47:19.255Z,10
2018-11-11T22:52:21.684Z,9
2018-11-11T22:57:24.130Z,9
2018-11-11T23:02:26.561Z,10
2018-11-11T23:07:29.000Z,9
2018-11-11T23:12:31.516Z,10
2018-11-11T23:17:33.890Z,9
2018-11-11T23:22:36.310Z,9
2018-11-11T23:27:38.750Z,7
2018-11-11T23:32:41.227Z,7
2018-11-11T23:37:43.652Z,6
2018-11-11T23:42:46.088Z,5
2018-11-11T23:47:49.709Z,5
2018-11-11T23:52:50.961Z,4
2018-11-11T23:57:53.665Z,3
